Terminal Aerodrome Forecast
Issued by NWS Twin Cities, MN

Home | Current Version | Previous Version | Text Only | Print | Product List | Glossary Off
Versions: 1 2 3 4 5 6 7 8 9 10 11 12 13 14 15 16 17 18 19 20 21

000
FTUS43 KMPX 291004 AAB
TAFEAU
TAF AMD
KEAU 291004Z 2910/3006 05004KT 6SM BR OVC007
      TEMPO 2910/2912 3SM BR OVC004
     FM291600 08004KT 6SM BR BKN010
     FM291800 09003KT P6SM OVC020
     FM300500 00000KT 6SM BR FEW025=

USA.gov is the U.S. government's official web portal to all federal, state and local government web resources and services.